createdAt,value
2017-12-28T00:03:25.363Z,83.10
2017-12-28T00:08:28.678Z,83.30
2017-12-28T00:13:31.227Z,83.30
2017-12-28T00:18:33.762Z,83.30
2017-12-28T00:23:36.299Z,83.20
2017-12-28T00:28:38.819Z,83.10
2017-12-28T00:33:41.366Z,83.30
2017-12-28T00:38:44.690Z,83.30
2017-12-28T00:43:47.238Z,83.30
2017-12-28T00:48:49.771Z,83.30
2017-12-28T00:53:52.311Z,83.30
2017-12-28T00:58:54.842Z,83.40
2017-12-28T01:03:57.385Z,83.50
2017-12-28T01:09:00.682Z,83.40
2017-12-28T01:14:03.989Z,83.50
2017-12-28T01:19:06.530Z,83.50
2017-12-28T01:24:09.066Z,83.50
2017-12-28T01:29:11.602Z,83.50
2017-12-28T01:34:14.142Z,83.40
2017-12-28T01:39:16.686Z,83.50
2017-12-28T01:44:19.999Z,83.50
2017-12-28T01:49:22.526Z,83.50
2017-12-28T01:54:25.061Z,83.10
2017-12-28T01:59:27.606Z,83.50
2017-12-28T02:04:30.162Z,83.40
2017-12-28T02:09:32.693Z,83.80
2017-12-28T02:14:36.006Z,83.70
2017-12-28T02:19:38.545Z,83.60
2017-12-28T02:24:41.082Z,83.80
2017-12-28T02:29:43.618Z,83.90
2017-12-28T02:34:46.922Z,84.00
2017-12-28T02:39:49.473Z,83.90
2017-12-28T02:44:52.118Z,83.80
2017-12-28T02:49:54.683Z,84.00
2017-12-28T02:54:57.210Z,83.80
2017-12-28T02:59:59.737Z,83.90
2017-12-28T03:05:02.274Z,84.20
2017-12-28T03:10:05.586Z,83.90
2017-12-28T03:15:08.136Z,83.90
2017-12-28T03:20:10.666Z,83.90
2017-12-28T03:25:13.208Z,83.80
2017-12-28T03:30:15.747Z,83.80
2017-12-28T03:35:18.277Z,83.80
2017-12-28T03:40:20.833Z,83.80
2017-12-28T03:45:24.118Z,83.70
2017-12-28T03:50:26.662Z,83.80
2017-12-28T03:55:29.227Z,83.70
2017-12-28T04:00:31.771Z,83.60
2017-12-28T04:05:34.326Z,83.70
2017-12-28T04:10:37.625Z,83.40
2017-12-28T04:15:40.158Z,83.50
2017-12-28T04:20:43.461Z,83.70
2017-12-28T04:25:46.761Z,83.70
2017-12-28T04:30:49.303Z,83.70
2017-12-28T04:35:51.833Z,83.70
2017-12-28T04:40:54.361Z,83.70
2017-12-28T04:45:56.892Z,83.80
2017-12-28T04:50:59.430Z,83.90
2017-12-28T04:56:01.972Z,83.80
2017-12-28T05:01:05.270Z,83.80
2017-12-28T05:06:07.804Z,83.70
2017-12-28T05:11:10.350Z,83.80
2017-12-28T05:16:12.881Z,83.80
2017-12-28T05:21:15.426Z,83.80
2017-12-28T05:26:17.941Z,83.90
2017-12-28T05:31:20.477Z,83.90
2017-12-28T05:36:23.794Z,83.60
2017-12-28T05:41:27.106Z,83.80
2017-12-28T05:46:30.416Z,83.80
2017-12-28T05:51:32.942Z,83.70
2017-12-28T05:56:35.508Z,84.00
2017-12-28T06:01:38.062Z,83.80
2017-12-28T06:06:40.585Z,84.00
2017-12-28T06:11:43.120Z,84.10
2017-12-28T06:16:45.665Z,84.00
2017-12-28T06:21:48.206Z,83.80
2017-12-28T06:26:50.736Z,84.00
2017-12-28T06:31:53.287Z,84.10
2017-12-28T06:36:55.813Z,84.00
2017-12-28T06:41:58.358Z,84.10
2017-12-28T06:47:00.892Z,84.20
2017-12-28T06:52:03.426Z,84.20
2017-12-28T06:57:05.958Z,83.90
2017-12-28T07:02:08.502Z,84.10
2017-12-28T07:07:12.589Z,84.00
2017-12-28T07:12:15.093Z,84.00
2017-12-28T07:17:17.634Z,84.20
2017-12-28T07:22:20.937Z,84.20
2017-12-28T07:27:24.238Z,84.20
2017-12-28T07:32:26.774Z,84.20
2017-12-28T07:37:29.298Z,84.30
2017-12-28T07:42:31.829Z,84.40
2017-12-28T07:47:34.361Z,84.40
2017-12-28T07:52:36.914Z,84.30
2017-12-28T07:57:39.470Z,84.40
2017-12-28T08:02:42.059Z,84.40
2017-12-28T08:07:44.602Z,84.40
2017-12-28T08:12:47.142Z,84.40
2017-12-28T08:17:50.458Z,84.40
2017-12-28T08:22:53.834Z,84.40
2017-12-28T08:27:56.376Z,84.50
2017-12-28T08:32:59.686Z,84.40
2017-12-28T08:38:02.238Z,84.40
2017-12-28T08:43:04.788Z,84.50
2017-12-28T08:48:07.323Z,84.40
2017-12-28T08:53:09.866Z,84.50
2017-12-28T09:03:54.284Z,84.30
2017-12-28T09:09:07.036Z,84.40
2017-12-28T09:14:09.602Z,84.40
2017-12-28T09:19:12.138Z,84.40
2017-12-28T09:24:14.661Z,84.50
2017-12-28T09:29:17.215Z,84.50
2017-12-28T09:34:20.523Z,84.50
2017-12-28T09:39:23.079Z,84.50
2017-12-28T09:44:25.626Z,84.50
2017-12-28T09:49:28.932Z,84.50
2017-12-28T09:54:32.250Z,84.40
2017-12-28T09:59:34.787Z,84.50
2017-12-28T10:04:37.383Z,84.40
2017-12-28T10:09:40.662Z,84.40
2017-12-28T10:14:43.979Z,84.40
2017-12-28T10:19:47.295Z,84.40
2017-12-28T10:24:50.594Z,84.50
2017-12-28T10:29:53.152Z,84.40
2017-12-28T10:34:55.699Z,84.30
2017-12-28T10:39:58.229Z,84.30
2017-12-28T10:45:00.767Z,84.20
2017-12-28T10:50:03.310Z,84.10
2017-12-28T10:55:05.862Z,84.20
2017-12-28T11:00:08.422Z,84.20
2017-12-28T11:05:10.951Z,84.40
2017-12-28T11:10:13.503Z,84.40
2017-12-28T11:15:16.818Z,84.60
2017-12-28T11:20:20.126Z,84.70
2017-12-28T11:25:23.422Z,84.90
2017-12-28T11:30:25.964Z,84.90
2017-12-28T11:35:28.498Z,85.00
2017-12-28T11:40:31.042Z,84.90
2017-12-28T11:45:33.594Z,85.10
2017-12-28T11:50:42.108Z,85.00
2017-12-28T11:55:44.630Z,84.80
2017-12-28T12:06:35.230Z,84.80
2017-12-28T12:11:38.522Z,84.90
2017-12-28T12:16:41.817Z,84.80
2017-12-28T12:21:44.358Z,84.80
2017-12-28T12:26:46.894Z,84.80
2017-12-28T12:31:49.418Z,84.60
2017-12-28T12:36:51.984Z,84.70
2017-12-28T12:41:54.494Z,84.60
2017-12-28T12:46:57.032Z,84.60
2017-12-28T12:52:00.338Z,84.70
2017-12-28T12:57:02.867Z,84.50
2017-12-28T13:02:05.410Z,84.70
2017-12-28T13:07:07.957Z,84.60
2017-12-28T13:12:10.508Z,84.50
2017-12-28T13:17:13.038Z,84.30
2017-12-28T13:22:15.590Z,84.30
2017-12-28T13:27:18.150Z,84.20
2017-12-28T13:32:20.697Z,84.10
2017-12-28T13:37:23.252Z,84.30
2017-12-28T13:42:25.826Z,84.20
2017-12-28T13:47:28.383Z,84.20
2017-12-28T13:52:30.952Z,84.30
2017-12-28T13:57:33.503Z,84.30
2017-12-28T14:02:36.062Z,84.20
2017-12-28T14:07:39.388Z,84.20
2017-12-28T14:12:41.938Z,84.20
2017-12-28T14:17:44.483Z,84.10
2017-12-28T14:22:47.039Z,84.10
2017-12-28T14:27:49.583Z,84.20
2017-12-28T14:32:52.122Z,84.10
2017-12-28T14:37:54.659Z,84.10
2017-12-28T14:42:57.206Z,84.00
2017-12-28T14:47:59.768Z,83.90
2017-12-28T14:53:02.298Z,83.80
2017-12-28T14:58:04.849Z,83.70
2017-12-28T15:03:07.416Z,83.80
2017-12-28T15:08:09.963Z,83.80
2017-12-28T15:13:12.530Z,83.80
2017-12-28T15:18:15.846Z,83.90
2017-12-28T15:23:18.411Z,83.90
2017-12-28T15:28:20.972Z,83.90
2017-12-28T15:33:23.517Z,83.80
2017-12-28T15:38:26.062Z,83.80
2017-12-28T15:43:28.639Z,83.60
2017-12-28T15:48:31.190Z,83.80
2017-12-28T15:53:33.750Z,83.80
2017-12-28T15:58:37.044Z,83.80
2017-12-28T16:03:39.595Z,83.80
2017-12-28T16:08:42.143Z,83.90
2017-12-28T16:13:44.682Z,83.70
2017-12-28T16:18:47.250Z,83.60
2017-12-28T16:23:50.566Z,83.40
2017-12-28T16:28:53.890Z,83.50
2017-12-28T16:33:56.454Z,83.50
2017-12-28T16:38:58.999Z,83.50
2017-12-28T16:44:01.562Z,83.40
2017-12-28T16:49:04.108Z,83.40
2017-12-28T16:54:06.670Z,83.40
2017-12-28T16:59:09.220Z,83.50
2017-12-28T17:04:11.780Z,83.50
2017-12-28T17:09:14.343Z,83.50
2017-12-28T17:14:16.884Z,83.50
2017-12-28T17:19:19.413Z,83.50
2017-12-28T17:24:21.970Z,83.40
2017-12-28T17:29:25.307Z,83.30
2017-12-28T17:34:27.878Z,83.20
2017-12-28T17:39:30.422Z,83.20
2017-12-28T17:44:32.978Z,83.30
2017-12-28T17:49:36.295Z,83.50
2017-12-28T17:54:39.606Z,83.50
2017-12-28T17:59:44.129Z,83.50
2017-12-28T18:04:48.630Z,83.40
2017-12-28T18:09:57.518Z,83.30
2017-12-28T18:15:00.232Z,83.40
2017-12-28T18:20:02.790Z,83.20
2017-12-28T18:25:05.346Z,83.10
2017-12-28T18:30:08.646Z,83.00
2017-12-28T18:35:11.182Z,83.00
2017-12-28T18:40:13.728Z,82.70
2017-12-28T18:45:16.267Z,82.70
2017-12-28T18:50:18.823Z,82.70
2017-12-28T18:55:21.382Z,82.30
2017-12-28T19:00:23.935Z,82.40
2017-12-28T19:05:27.247Z,82.20
2017-12-28T19:10:29.802Z,82.30
2017-12-28T19:15:32.338Z,82.10
2017-12-28T19:20:34.877Z,82.20
2017-12-28T19:25:37.451Z,82.20
2017-12-28T19:30:40.778Z,82.20
2017-12-28T19:35:44.098Z,83.10
2017-12-28T19:40:46.650Z,82.40
2017-12-28T19:45:49.211Z,82.30
2017-12-28T19:50:51.782Z,82.20
2017-12-28T19:55:54.326Z,82.30
2017-12-28T20:00:56.881Z,82.20
2017-12-28T20:06:00.190Z,82.00
2017-12-28T20:11:03.501Z,82.10
2017-12-28T20:16:06.798Z,82.20
2017-12-28T20:21:09.355Z,82.10
2017-12-28T20:26:11.893Z,82.20
2017-12-28T20:31:14.439Z,82.10
2017-12-28T20:36:17.025Z,82.20
2017-12-28T20:41:20.359Z,82.10
2017-12-28T20:46:22.896Z,82.00
2017-12-28T20:51:25.448Z,82.10
2017-12-28T20:56:27.992Z,82.00
2017-12-28T21:01:31.300Z,81.70
2017-12-28T21:06:33.860Z,81.70
2017-12-28T21:11:36.461Z,81.90
2017-12-28T21:16:39.789Z,81.80
2017-12-28T21:21:42.354Z,81.80
2017-12-28T21:26:45.669Z,81.90
2017-12-28T21:31:49.040Z,82.00
2017-12-28T21:36:51.609Z,81.90
2017-12-28T21:41:54.153Z,82.00
2017-12-28T21:46:56.744Z,82.00
2017-12-28T21:51:59.291Z,82.20
2017-12-28T21:57:02.599Z,81.60
2017-12-28T22:02:05.170Z,81.70
2017-12-28T22:07:07.721Z,81.60
2017-12-28T22:12:10.263Z,81.40
2017-12-28T22:17:12.798Z,80.70
2017-12-28T22:22:15.351Z,81.30
2017-12-28T22:27:17.910Z,80.90
2017-12-28T22:32:20.450Z,80.80
2017-12-28T22:37:22.995Z,80.80
2017-12-28T22:42:25.526Z,80.80
2017-12-28T22:47:28.087Z,80.70
2017-12-28T22:52:31.446Z,80.70
2017-12-28T22:57:33.972Z,80.60
2017-12-28T23:02:36.514Z,80.40
2017-12-28T23:07:39.062Z,80.70
2017-12-28T23:12:41.581Z,80.60
2017-12-28T23:17:44.125Z,80.50
2017-12-28T23:22:46.667Z,80.40
2017-12-28T23:27:49.222Z,79.90
2017-12-28T23:32:51.758Z,79.20
2017-12-28T23:37:54.306Z,79.80
2017-12-28T23:42:56.851Z,79.60
2017-12-28T23:47:59.390Z,79.50
2017-12-28T23:53:02.745Z,79.50
2017-12-28T23:58:05.986Z,79.50
